createdAt,value
2018-04-26T00:00:26.526Z,15.12
2018-04-26T00:03:49.406Z,14.95
2018-04-26T00:07:12.807Z,15.09
2018-04-26T00:10:35.738Z,15.04
2018-04-26T00:13:58.664Z,15.19
2018-04-26T00:17:21.512Z,15.35
2018-04-26T00:20:44.376Z,15.31
2018-04-26T00:24:07.307Z,15.23
2018-04-26T00:27:30.928Z,15.64
2018-04-26T00:30:53.788Z,15.43
2018-04-26T00:34:16.638Z,15.35
2018-04-26T00:37:39.538Z,15.29
2018-04-26T00:41:02.417Z,15.16
2018-04-26T00:44:26.084Z,15.19
2018-04-26T00:47:49.687Z,15.30
2018-04-26T00:51:12.561Z,15.40
2018-04-26T00:54:36.188Z,15.41
2018-04-26T00:57:59.074Z,15.28
2018-04-26T01:01:21.935Z,15.46
2018-04-26T01:04:45.591Z,15.24
2018-04-26T01:08:08.470Z,15.53
2018-04-26T01:11:32.098Z,15.35
2018-04-26T01:14:54.942Z,15.36
2018-04-26T01:18:17.810Z,15.27
2018-04-26T01:21:41.692Z,15.42
2018-04-26T01:25:05.316Z,15.52
2018-04-26T01:28:28.232Z,15.51
2018-04-26T01:31:51.158Z,15.66
2018-04-26T01:35:14.070Z,15.72
2018-04-26T01:38:38.186Z,15.68
2018-04-26T01:42:03.000Z,15.46
2018-04-26T01:45:26.615Z,15.54
2018-04-26T01:48:49.470Z,15.66
2018-04-26T01:52:13.104Z,15.61
2018-04-26T01:55:35.972Z,15.66
2018-04-26T01:58:58.862Z,15.66
2018-04-26T02:02:21.732Z,15.57
2018-04-26T02:05:44.632Z,15.79
2018-04-26T02:09:07.499Z,15.79
2018-04-26T02:12:30.338Z,15.63
2018-04-26T02:15:53.295Z,15.55
2018-04-26T02:19:16.897Z,15.73
2018-04-26T02:22:39.772Z,15.73
2018-04-26T02:26:02.690Z,15.80
2018-04-26T02:29:25.627Z,15.63
2018-04-26T02:32:48.513Z,15.43
2018-04-26T02:36:11.371Z,15.61
2018-04-26T02:39:34.205Z,15.34
2018-04-26T02:42:57.101Z,14.99
2018-04-26T02:46:20.744Z,14.54
2018-04-26T02:49:44.357Z,14.41
2018-04-26T02:53:07.212Z,14.51
2018-04-26T02:56:30.096Z,14.53
2018-04-26T02:59:52.984Z,14.39
2018-04-26T03:03:15.927Z,14.35
2018-04-26T03:06:39.556Z,14.34
2018-04-26T03:10:02.459Z,14.27
2018-04-26T03:13:25.332Z,13.86
2018-04-26T03:16:49.174Z,13.97
2018-04-26T03:20:12.029Z,13.65
2018-04-26T03:23:34.885Z,13.83
2018-04-26T03:26:57.732Z,13.78
2018-04-26T03:30:20.649Z,13.82
2018-04-26T03:33:43.557Z,13.75
2018-04-26T03:37:06.423Z,13.55
2018-04-26T03:40:29.343Z,13.52
2018-04-26T03:43:52.176Z,13.68
2018-04-26T03:47:15.078Z,13.50
2018-04-26T03:50:37.996Z,13.50
2018-04-26T03:54:00.869Z,13.70
2018-04-26T03:57:23.718Z,13.27
2018-04-26T04:00:58.446Z,13.67
2018-04-26T04:04:33.851Z,13.30
2018-04-26T04:07:56.692Z,13.25
2018-04-26T04:11:19.542Z,13.15
2018-04-26T04:14:42.656Z,13.13
2018-04-26T04:18:05.471Z,13.00
2018-04-26T04:21:28.478Z,12.99
2018-04-26T04:24:52.116Z,12.88
2018-04-26T04:28:16.453Z,12.82
2018-04-26T04:31:39.310Z,12.90
2018-04-26T04:35:02.192Z,12.71
2018-04-26T04:38:26.946Z,12.93
2018-04-26T04:41:49.844Z,13.02
2018-04-26T04:45:13.487Z,12.93
2018-04-26T04:48:36.420Z,12.96
2018-04-26T04:52:00.052Z,12.88
2018-04-26T04:55:22.908Z,12.85
2018-04-26T04:58:45.832Z,12.77
2018-04-26T05:02:09.520Z,12.82
2018-04-26T05:05:32.314Z,13.01
2018-04-26T05:08:55.173Z,12.84
2018-04-26T05:12:18.066Z,12.67
2018-04-26T05:15:40.932Z,13.00
2018-04-26T05:19:03.836Z,12.73
2018-04-26T05:22:26.787Z,12.60
2018-04-26T05:25:50.497Z,12.73
2018-04-26T05:29:13.327Z,13.03
2018-04-26T05:32:36.238Z,13.04
2018-04-26T05:35:59.110Z,12.93
2018-04-26T05:39:22.029Z,13.06
2018-04-26T05:42:44.958Z,13.07
2018-04-26T05:46:07.907Z,13.15
2018-04-26T05:49:30.962Z,13.16
2018-04-26T05:52:54.601Z,13.11
2018-04-26T05:56:18.291Z,13.28
2018-04-26T05:59:41.160Z,13.28
2018-04-26T06:03:04.063Z,13.25
2018-04-26T06:06:26.934Z,13.33
2018-04-26T06:09:51.421Z,13.30
2018-04-26T06:13:14.281Z,13.40
2018-04-26T06:16:37.241Z,13.23
2018-04-26T06:20:00.124Z,13.20
2018-04-26T06:23:23.063Z,13.37
2018-04-26T06:26:46.709Z,13.71
2018-04-26T06:30:10.362Z,13.23
2018-04-26T06:33:34.736Z,13.39
2018-04-26T06:36:58.444Z,13.34
2018-04-26T06:40:22.079Z,13.25
2018-04-26T06:43:44.921Z,13.36
2018-04-26T06:47:07.792Z,13.04
2018-04-26T06:50:30.791Z,13.38
2018-04-26T06:53:53.691Z,13.26
2018-04-26T06:57:16.537Z,13.43
2018-04-26T07:00:39.393Z,13.33
2018-04-26T07:04:02.332Z,13.59
2018-04-26T07:07:26.727Z,13.45
2018-04-26T07:10:50.380Z,13.71
2018-04-26T07:14:13.239Z,13.71
2018-04-26T07:17:36.273Z,13.30
2018-04-26T07:20:59.938Z,13.42
2018-04-26T07:24:22.825Z,13.78
2018-04-26T07:27:45.692Z,13.92
2018-04-26T07:31:09.292Z,13.81
2018-04-26T07:34:32.181Z,13.64
2018-04-26T07:38:06.051Z,14.02
2018-04-26T07:41:29.033Z,14.29
2018-04-26T07:44:51.989Z,14.14
2018-04-26T07:48:14.871Z,14.27
2018-04-26T07:51:37.886Z,14.31
2018-04-26T07:55:00.808Z,13.94
2018-04-26T07:58:23.708Z,14.03
2018-04-26T08:01:46.817Z,13.86
2018-04-26T08:05:09.630Z,14.12
2018-04-26T08:08:32.672Z,14.27
2018-04-26T08:11:56.293Z,14.46
2018-04-26T08:15:19.344Z,14.22
2018-04-26T08:18:42.213Z,14.38
2018-04-26T08:22:05.838Z,14.00
2018-04-26T08:25:28.720Z,14.03
2018-04-26T08:28:52.399Z,14.02
2018-04-26T08:32:15.295Z,13.90
2018-04-26T08:35:38.926Z,13.63
2018-04-26T08:39:03.176Z,13.56
2018-04-26T08:42:26.102Z,14.05
2018-04-26T08:45:52.233Z,13.81
2018-04-26T08:49:15.191Z,13.73
2018-04-26T08:52:38.822Z,13.51
2018-04-26T08:56:01.754Z,13.21
2018-04-26T08:59:25.375Z,13.41
2018-04-26T09:02:48.305Z,13.64
2018-04-26T09:06:11.146Z,13.63
2018-04-26T09:09:33.998Z,13.65
2018-04-26T09:12:56.858Z,13.48
2018-04-26T09:16:20.529Z,13.49
2018-04-26T09:19:44.180Z,13.45
2018-04-26T09:23:07.784Z,13.23
2018-04-26T09:26:30.614Z,13.51
2018-04-26T09:29:53.440Z,13.23
2018-04-26T09:33:22.907Z,13.13
2018-04-26T09:36:46.516Z,13.30
2018-04-26T09:40:10.027Z,13.41
2018-04-26T09:43:32.904Z,13.42
2018-04-26T09:46:56.916Z,13.31
2018-04-26T09:50:20.518Z,13.31
2018-04-26T09:53:43.375Z,13.43
2018-04-26T09:57:06.206Z,13.48
2018-04-26T10:00:29.875Z,13.28
2018-04-26T10:03:54.287Z,13.59
2018-04-26T10:07:17.881Z,13.98
2018-04-26T10:10:40.735Z,13.73
2018-04-26T10:14:03.661Z,13.75
2018-04-26T10:17:26.475Z,13.99
2018-04-26T10:20:50.148Z,13.84
2018-04-26T10:24:13.024Z,13.79
2018-04-26T10:27:35.937Z,13.63
2018-04-26T10:30:59.710Z,13.60
2018-04-26T10:34:22.545Z,13.72
2018-04-26T10:37:46.140Z,13.86
2018-04-26T10:41:08.981Z,13.73
2018-04-26T10:44:31.944Z,13.48
2018-04-26T10:47:54.866Z,13.32
2018-04-26T10:51:18.471Z,13.41
2018-04-26T10:54:41.300Z,13.23
2018-04-26T10:58:04.172Z,13.40
2018-04-26T11:01:27.040Z,13.55
2018-04-26T11:04:50.055Z,13.37
2018-04-26T11:08:14.415Z,13.20
2018-04-26T11:11:37.364Z,13.50
2018-04-26T11:15:00.135Z,13.38
2018-04-26T11:18:22.989Z,13.54
2018-04-26T11:21:46.017Z,13.39
2018-04-26T11:25:08.871Z,13.81
2018-04-26T11:28:31.705Z,13.72
2018-04-26T11:31:54.601Z,13.42
2018-04-26T11:35:17.477Z,13.69
2018-04-26T11:38:41.124Z,13.51
2018-04-26T11:42:03.988Z,13.74
2018-04-26T11:45:26.836Z,13.56
2018-04-26T11:48:50.451Z,13.53
2018-04-26T11:52:13.289Z,13.79
2018-04-26T11:55:36.127Z,14.17
2018-04-26T11:58:59.738Z,14.30
2018-04-26T12:02:22.665Z,14.78
2018-04-26T12:05:45.426Z,14.39
2018-04-26T12:09:08.254Z,14.38
2018-04-26T12:12:31.077Z,14.24
2018-04-26T12:15:56.500Z,15.03
2018-04-26T12:19:19.338Z,14.91
2018-04-26T12:22:42.947Z,15.10
2018-04-26T12:26:05.792Z,15.64
2018-04-26T12:29:28.659Z,15.74
2018-04-26T12:32:51.525Z,15.44
2018-04-26T12:36:21.034Z,15.40
2018-04-26T12:39:44.011Z,14.96
2018-04-26T12:43:06.989Z,15.24
2018-04-26T12:46:30.119Z,15.14
2018-04-26T12:49:53.007Z,14.78
2018-04-26T12:53:15.860Z,14.35
2018-04-26T12:56:38.788Z,14.72
2018-04-26T13:00:02.567Z,14.79
2018-04-26T13:03:25.512Z,15.08
2018-04-26T13:06:49.171Z,14.73
2018-04-26T13:10:12.796Z,15.29
2018-04-26T13:13:35.746Z,14.64
2018-04-26T13:16:58.756Z,15.10
2018-04-26T13:20:21.605Z,15.08
2018-04-26T13:23:44.464Z,15.31
2018-04-26T13:27:07.410Z,14.92
2018-04-26T13:30:31.707Z,15.67
2018-04-26T13:33:55.337Z,15.34
2018-04-26T13:37:18.187Z,16.14
2018-04-26T13:40:41.102Z,16.31
2018-04-26T13:44:03.943Z,16.94
2018-04-26T13:47:26.794Z,16.74
2018-04-26T13:50:50.139Z,16.48
2018-04-26T13:54:13.157Z,16.23
2018-04-26T13:57:36.059Z,15.65
2018-04-26T14:00:58.908Z,15.66
2018-04-26T14:04:21.765Z,15.49
2018-04-26T14:07:44.627Z,16.30
2018-04-26T14:11:08.326Z,17.11
2018-04-26T14:14:32.207Z,17.16
2018-04-26T14:17:55.145Z,15.88
2018-04-26T14:21:18.758Z,16.31
2018-04-26T14:24:41.623Z,16.54
2018-04-26T14:28:04.535Z,16.20
2018-04-26T14:31:27.430Z,16.02
2018-04-26T14:34:51.116Z,16.51
2018-04-26T14:38:14.777Z,16.15
2018-04-26T14:41:38.401Z,16.51
2018-04-26T14:45:01.452Z,15.94
2018-04-26T14:48:24.375Z,16.30
2018-04-26T14:51:47.263Z,16.14
2018-04-26T14:55:10.935Z,17.01
2018-04-26T14:58:42.327Z,17.12
2018-04-26T15:02:05.986Z,17.51
2018-04-26T15:05:29.720Z,17.14
2018-04-26T15:08:52.904Z,17.34
2018-04-26T15:12:24.014Z,17.23
2018-04-26T15:15:47.151Z,17.10
2018-04-26T15:19:10.030Z,18.23
2018-04-26T15:26:11.274Z,19.01
2018-04-26T15:29:34.244Z,19.92
2018-04-26T15:32:57.118Z,19.62
2018-04-26T15:36:20.751Z,19.77
2018-04-26T15:39:43.596Z,20.85
2018-04-26T15:43:06.976Z,19.79
2018-04-26T15:46:32.024Z,20.29
2018-04-26T15:50:04.599Z,20.40
2018-04-26T15:53:45.616Z,20.52
2018-04-26T16:06:09.648Z,19.04
2018-04-26T16:09:43.637Z,18.34
2018-04-26T16:13:30.378Z,17.95
2018-04-26T16:17:25.417Z,17.64
2018-04-26T16:21:06.719Z,17.26
2018-04-26T16:24:47.094Z,17.43
2018-04-26T16:28:27.562Z,17.36
2018-04-26T16:32:08.038Z,17.16
2018-04-26T16:35:42.618Z,17.15
2018-04-26T16:39:16.378Z,16.81
2018-04-26T16:42:39.281Z,16.72
2018-04-26T16:46:02.192Z,17.08
2018-04-26T16:49:25.102Z,17.38
2018-04-26T16:52:47.966Z,17.78
2018-04-26T16:56:10.815Z,17.83
2018-04-26T16:59:33.717Z,18.68
2018-04-26T17:02:56.579Z,18.21
2018-04-26T17:06:19.508Z,18.28
2018-04-26T17:09:43.265Z,17.64
2018-04-26T17:13:06.240Z,17.28
2018-04-26T17:16:29.242Z,17.16
2018-04-26T17:19:52.120Z,16.42
2018-04-26T17:23:15.001Z,16.47
2018-04-26T17:26:38.696Z,16.71
2018-04-26T17:30:02.594Z,16.46
2018-04-26T17:33:26.348Z,16.36
2018-04-26T17:36:49.399Z,15.92
2018-04-26T17:40:14.085Z,15.85
2018-04-26T17:43:37.785Z,15.82
2018-04-26T17:47:00.909Z,15.47
2018-04-26T17:50:24.866Z,15.67
2018-04-26T17:53:47.753Z,15.41
2018-04-26T17:57:12.466Z,15.35
2018-04-26T18:00:35.664Z,15.46
2018-04-26T18:03:58.841Z,15.26
2018-04-26T18:07:24.195Z,15.23
2018-04-26T18:10:47.065Z,15.14
2018-04-26T18:14:09.985Z,15.20
2018-04-26T18:17:33.092Z,15.14
2018-04-26T18:20:56.069Z,15.32
2018-04-26T18:24:19.711Z,15.28
2018-04-26T18:27:43.365Z,14.76
2018-04-26T18:31:07.873Z,15.25
2018-04-26T18:34:31.608Z,14.93
2018-04-26T18:37:54.499Z,15.35
2018-04-26T18:41:17.405Z,15.21
2018-04-26T18:44:40.275Z,14.73
2018-04-26T18:48:03.222Z,15.11
2018-04-26T18:51:26.839Z,15.11
2018-04-26T18:54:49.786Z,14.89
2018-04-26T18:58:12.702Z,14.82
2018-04-26T19:01:36.524Z,14.91
2018-04-26T19:05:00.688Z,14.72
2018-04-26T19:08:24.036Z,14.76
2018-04-26T19:11:47.454Z,14.65
2018-04-26T19:15:10.516Z,14.55
2018-04-26T19:18:34.208Z,14.64
2018-04-26T19:21:57.174Z,14.45
2018-04-26T19:25:20.029Z,14.66
2018-04-26T19:28:42.952Z,14.65
2018-04-26T19:32:07.186Z,14.58
2018-04-26T19:35:30.158Z,14.44
2018-04-26T19:38:55.644Z,14.21
2018-04-26T19:42:18.510Z,14.52
2018-04-26T19:45:41.651Z,14.42
2018-04-26T19:49:05.382Z,14.30
2018-04-26T19:52:29.065Z,14.25
2018-04-26T19:55:51.983Z,14.48
2018-04-26T19:59:15.584Z,14.54
2018-04-26T20:02:38.505Z,14.04
2018-04-26T20:06:12.482Z,14.08
2018-04-26T20:09:35.405Z,14.13
2018-04-26T20:12:59.072Z,14.01
2018-04-26T20:16:21.945Z,14.08
2018-04-26T20:19:44.805Z,14.02
2018-04-26T20:23:07.702Z,13.58
2018-04-26T20:26:54.169Z,13.79
2018-04-26T20:30:17.088Z,14.19
2018-04-26T20:33:40.351Z,13.64
2018-04-26T20:37:04.073Z,13.82
2018-04-26T20:40:27.701Z,13.91
2018-04-26T20:43:50.562Z,13.99
2018-04-26T20:47:15.036Z,13.92
2018-04-26T20:50:37.952Z,13.78
2018-04-26T20:54:01.424Z,14.01
2018-04-26T20:57:24.361Z,13.86
2018-04-26T21:00:48.115Z,14.18
2018-04-26T21:04:10.966Z,13.89
2018-04-26T21:07:33.826Z,13.79
2018-04-26T21:10:56.662Z,13.78
2018-04-26T21:14:19.608Z,13.75
2018-04-26T21:17:45.878Z,13.73
2018-04-26T21:21:08.871Z,13.46
2018-04-26T21:24:31.785Z,13.14
2018-04-26T21:27:54.707Z,13.22
2018-04-26T21:31:24.673Z,13.10
2018-04-26T21:35:17.615Z,13.38
2018-04-26T21:38:40.464Z,13.25
2018-04-26T21:42:03.489Z,13.64
2018-04-26T21:45:26.398Z,13.82
2018-04-26T21:48:50.542Z,13.48
2018-04-26T21:52:21.178Z,13.24
2018-04-26T21:55:51.089Z,13.68
2018-04-26T21:59:20.941Z,13.73
2018-04-26T22:02:43.339Z,13.63
2018-04-26T22:06:07.608Z,13.78
2018-04-26T22:09:30.750Z,13.68
2018-04-26T22:12:53.785Z,13.63
2018-04-26T22:16:16.654Z,13.24
2018-04-26T22:19:39.517Z,13.08
2018-04-26T22:23:03.140Z,12.95
2018-04-26T22:26:26.016Z,13.19
2018-04-26T22:29:49.605Z,13.06
2018-04-26T22:33:13.261Z,13.10
2018-04-26T22:36:36.114Z,12.90
2018-04-26T22:39:58.954Z,13.14
2018-04-26T22:43:22.553Z,13.12
2018-04-26T22:46:45.403Z,13.13
2018-04-26T22:50:08.249Z,12.85
2018-04-26T22:53:31.239Z,12.83
2018-04-26T22:56:54.074Z,13.04
2018-04-26T23:00:16.920Z,12.96
2018-04-26T23:03:40.566Z,12.90
2018-04-26T23:07:03.402Z,13.08
2018-04-26T23:10:27.022Z,12.94
2018-04-26T23:13:49.853Z,12.73
2018-04-26T23:17:13.740Z,12.88
2018-04-26T23:20:36.629Z,12.65
2018-04-26T23:23:59.462Z,12.84
2018-04-26T23:27:23.085Z,13.00
2018-04-26T23:30:45.950Z,13.05
2018-04-26T23:34:09.587Z,13.00
2018-04-26T23:37:32.425Z,12.96
2018-04-26T23:40:55.264Z,12.70
2018-04-26T23:44:18.111Z,12.94
2018-04-26T23:47:40.929Z,12.84
2018-04-26T23:51:03.783Z,13.08
2018-04-26T23:54:26.617Z,12.88
2018-04-26T23:57:50.230Z,12.96
